N717SM KFLL-KSAN
Flight info
| Callsign | N717SM |
|---|---|
| Flight time | N/A |
| Altitude | 40000 |
| Route | BNICE2 DOLIE Y280 NAITE/N0485F430 Y280 REDFN IAH J86 JCT ELP SSO J50 GBN J18 HOGGZ LUCKI1 |
| Aircraft | C750/M-SBDE3FGHRWXY/S |
Departure
| Time | N/A |
|---|---|
| Airport | Fort Lauderdale Hollywood International Airport (KFLL) |
Arrival
| Time | 2026-05-04 21:12 |
|---|---|
| Airport | San Diego International Airport (KSAN) |
| Time | Latitude | Longitude | Altitude | Speed | Heading |
|---|---|---|---|---|---|
| 2026-05-04 19:13 | 31.38688 | -103.78144 | 42904 ft | 428 kts | 280° |
| 2026-05-04 19:13 | 31.39927 | -103.84956 | 42875 ft | 428 kts | 280° |
| 2026-05-04 19:14 | 31.41164 | -103.91782 | 42850 ft | 429 kts | 280° |
| 2026-05-04 19:14 | 31.42400 | -103.98618 | 42844 ft | 429 kts | 280° |
| 2026-05-04 19:15 | 31.43633 | -104.05465 | 42844 ft | 430 kts | 280° |
| 2026-05-04 19:15 | 31.44864 | -104.12323 | 42849 ft | 431 kts | 280° |
| 2026-05-04 19:16 | 31.46094 | -104.19196 | 42856 ft | 431 kts | 280° |
| 2026-05-04 19:16 | 31.47320 | -104.26070 | 42856 ft | 432 kts | 280° |
| 2026-05-04 19:17 | 31.48544 | -104.32956 | 42860 ft | 432 kts | 280° |
| 2026-05-04 19:17 | 31.49766 | -104.39849 | 42855 ft | 432 kts | 280° |
| 2026-05-04 19:18 | 31.50976 | -104.46703 | 42859 ft | 432 kts | 280° |
| 2026-05-04 19:18 | 31.52192 | -104.53608 | 42863 ft | 433 kts | 280° |
| 2026-05-04 19:19 | 31.53404 | -104.60514 | 42867 ft | 433 kts | 279° |
| 2026-05-04 19:19 | 31.54612 | -104.67423 | 42869 ft | 432 kts | 279° |
| 2026-05-04 19:20 | 31.55816 | -104.74330 | 42870 ft | 432 kts | 279° |
| 2026-05-04 19:20 | 31.57015 | -104.81235 | 42876 ft | 433 kts | 279° |
| 2026-05-04 19:21 | 31.58213 | -104.88149 | 42874 ft | 433 kts | 279° |
| 2026-05-04 19:21 | 31.59405 | -104.95064 | 42866 ft | 433 kts | 279° |
| 2026-05-04 19:22 | 31.60595 | -105.01978 | 42871 ft | 432 kts | 279° |
| 2026-05-04 19:22 | 31.61778 | -105.08884 | 42868 ft | 432 kts | 279° |
| 2026-05-04 19:23 | 31.62956 | -105.15783 | 42861 ft | 431 kts | 279° |
| 2026-05-04 19:23 | 31.64130 | -105.22674 | 42862 ft | 431 kts | 279° |
| 2026-05-04 19:24 | 31.65297 | -105.29556 | 42861 ft | 429 kts | 279° |
| 2026-05-04 19:24 | 31.66460 | -105.36434 | 42857 ft | 430 kts | 278° |
| 2026-05-04 19:25 | 31.67620 | -105.43322 | 42853 ft | 430 kts | 278° |
| 2026-05-04 19:25 | 31.68778 | -105.50217 | 42849 ft | 431 kts | 278° |
| 2026-05-04 19:26 | 31.69934 | -105.57123 | 42842 ft | 431 kts | 278° |
| 2026-05-04 19:26 | 31.71086 | -105.64037 | 42843 ft | 432 kts | 278° |
| 2026-05-04 19:27 | 31.72237 | -105.70961 | 42842 ft | 432 kts | 278° |
| 2026-05-04 19:27 | 31.73383 | -105.77884 | 42847 ft | 432 kts | 278° |
| 2026-05-04 19:28 | 31.74525 | -105.84807 | 42847 ft | 432 kts | 278° |
| 2026-05-04 19:28 | 31.75665 | -105.91735 | 42851 ft | 432 kts | 278° |
| 2026-05-04 19:29 | 31.76799 | -105.98658 | 42864 ft | 431 kts | 278° |
| 2026-05-04 19:29 | 31.77922 | -106.05533 | 42910 ft | 431 kts | 278° |
| 2026-05-04 19:30 | 31.79047 | -106.12451 | 42956 ft | 431 kts | 278° |
| 2026-05-04 19:30 | 31.80168 | -106.19371 | 42998 ft | 431 kts | 278° |
| 2026-05-04 19:31 | 31.81288 | -106.26299 | 43037 ft | 431 kts | 278° |
| 2026-05-04 19:31 | 31.82414 | -106.33224 | 43045 ft | 431 kts | 278° |
| 2026-05-04 19:32 | 31.83557 | -106.40150 | 43048 ft | 432 kts | 278° |
| 2026-05-04 19:32 | 31.84683 | -106.47077 | 43042 ft | 431 kts | 278° |
| 2026-05-04 19:33 | 31.85813 | -106.54002 | 43008 ft | 431 kts | 278° |
| 2026-05-04 19:33 | 31.86934 | -106.60935 | 43059 ft | 432 kts | 278° |
| 2026-05-04 19:34 | 31.88056 | -106.67870 | 43056 ft | 431 kts | 277° |
| 2026-05-04 19:34 | 31.89172 | -106.74810 | 43050 ft | 432 kts | 277° |
| 2026-05-04 19:35 | 31.90285 | -106.81750 | 43036 ft | 432 kts | 277° |
| 2026-05-04 19:35 | 31.91394 | -106.88694 | 42988 ft | 432 kts | 277° |
| 2026-05-04 19:36 | 31.92500 | -106.95644 | 42951 ft | 432 kts | 277° |
| 2026-05-04 19:36 | 31.93602 | -107.02590 | 42904 ft | 432 kts | 277° |
| 2026-05-04 19:37 | 31.94701 | -107.09548 | 42854 ft | 432 kts | 277° |
| 2026-05-04 19:37 | 31.95796 | -107.16500 | 42848 ft | 432 kts | 277° |
| 2026-05-04 19:38 | 31.96890 | -107.23474 | 42844 ft | 433 kts | 277° |
| 2026-05-04 19:38 | 31.97978 | -107.30438 | 42846 ft | 433 kts | 277° |
| 2026-05-04 19:39 | 31.99065 | -107.37423 | 42852 ft | 433 kts | 277° |
| 2026-05-04 19:39 | 32.00141 | -107.44357 | 42863 ft | 434 kts | 277° |
| 2026-05-04 19:40 | 32.01222 | -107.51354 | 42902 ft | 434 kts | 277° |
| 2026-05-04 19:40 | 32.02298 | -107.58346 | 42939 ft | 434 kts | 277° |
| 2026-05-04 19:41 | 32.03372 | -107.65347 | 42961 ft | 434 kts | 277° |
| 2026-05-04 19:41 | 32.04441 | -107.72350 | 42977 ft | 434 kts | 277° |
| 2026-05-04 19:42 | 32.05507 | -107.79356 | 42983 ft | 434 kts | 276° |
| 2026-05-04 19:42 | 32.06569 | -107.86360 | 42970 ft | 434 kts | 276° |
| 2026-05-04 19:43 | 32.07627 | -107.93364 | 42939 ft | 434 kts | 276° |
| 2026-05-04 19:43 | 32.08681 | -108.00371 | 42920 ft | 433 kts | 276° |
| 2026-05-04 19:44 | 32.09729 | -108.07369 | 42892 ft | 433 kts | 276° |
| 2026-05-04 19:44 | 32.10773 | -108.14368 | 42882 ft | 433 kts | 276° |
| 2026-05-04 19:45 | 32.11812 | -108.21356 | 42880 ft | 433 kts | 276° |
| 2026-05-04 19:45 | 32.12851 | -108.28368 | 42875 ft | 433 kts | 276° |
| 2026-05-04 19:46 | 32.13883 | -108.35367 | 42893 ft | 433 kts | 276° |
| 2026-05-04 19:46 | 32.14912 | -108.42375 | 42931 ft | 433 kts | 276° |
| 2026-05-04 19:47 | 32.15931 | -108.49337 | 42965 ft | 434 kts | 276° |
| 2026-05-04 19:47 | 32.16961 | -108.56402 | 42999 ft | 434 kts | 276° |
| 2026-05-04 19:48 | 32.17974 | -108.63383 | 43021 ft | 435 kts | 276° |
| 2026-05-04 19:48 | 32.18991 | -108.70417 | 43031 ft | 435 kts | 276° |
| 2026-05-04 19:49 | 32.20006 | -108.77467 | 43024 ft | 436 kts | 276° |
| 2026-05-04 19:49 | 32.21019 | -108.84528 | 43004 ft | 436 kts | 275° |
| 2026-05-04 19:50 | 32.22026 | -108.91582 | 42975 ft | 436 kts | 275° |
| 2026-05-04 19:50 | 32.23030 | -108.98639 | 42933 ft | 435 kts | 275° |
| 2026-05-04 19:51 | 32.24028 | -109.05683 | 42891 ft | 435 kts | 275° |
| 2026-05-04 19:51 | 32.25021 | -109.12730 | 42869 ft | 435 kts | 275° |
| 2026-05-04 19:52 | 32.26011 | -109.19773 | 42866 ft | 434 kts | 275° |
| 2026-05-04 19:52 | 32.26855 | -109.25670 | 42864 ft | 436 kts | 276° |
| 2026-05-04 19:53 | 32.28483 | -109.32611 | 42857 ft | 439 kts | 281° |
| 2026-05-04 19:53 | 32.30159 | -109.39559 | 42865 ft | 440 kts | 281° |
| 2026-05-04 19:54 | 32.31861 | -109.46497 | 42864 ft | 440 kts | 281° |
| 2026-05-04 19:54 | 32.33535 | -109.53406 | 42862 ft | 440 kts | 281° |
| 2026-05-04 19:55 | 32.35223 | -109.60363 | 42871 ft | 440 kts | 280° |
| 2026-05-04 19:55 | 32.36905 | -109.67323 | 42870 ft | 440 kts | 280° |
| 2026-05-04 19:56 | 32.38584 | -109.74283 | 42881 ft | 440 kts | 280° |
| 2026-05-04 19:56 | 32.40257 | -109.81245 | 42888 ft | 440 kts | 280° |
| 2026-05-04 19:57 | 32.41928 | -109.88208 | 42899 ft | 440 kts | 280° |
| 2026-05-04 19:57 | 32.43593 | -109.95171 | 42913 ft | 439 kts | 280° |
| 2026-05-04 19:58 | 32.45254 | -110.02134 | 42928 ft | 439 kts | 280° |
| 2026-05-04 19:58 | 32.46911 | -110.09095 | 42940 ft | 439 kts | 280° |
| 2026-05-04 19:59 | 32.48561 | -110.16050 | 42940 ft | 437 kts | 280° |
| 2026-05-04 19:59 | 32.50202 | -110.22986 | 42952 ft | 438 kts | 279° |
| 2026-05-04 20:00 | 32.51842 | -110.29936 | 42976 ft | 437 kts | 279° |
| 2026-05-04 20:00 | 32.53462 | -110.36810 | 42970 ft | 435 kts | 279° |
| 2026-05-04 20:01 | 32.55096 | -110.43777 | 42974 ft | 437 kts | 279° |
| 2026-05-04 20:01 | 32.56712 | -110.50680 | 42969 ft | 439 kts | 279° |
| 2026-05-04 20:02 | 32.58342 | -110.57658 | 42968 ft | 439 kts | 279° |
| 2026-05-04 20:02 | 32.59967 | -110.64640 | 42967 ft | 440 kts | 279° |
| 2026-05-04 20:03 | 32.61592 | -110.71639 | 42964 ft | 440 kts | 279° |
| 2026-05-04 20:03 | 32.63212 | -110.78638 | 42965 ft | 440 kts | 279° |
| 2026-05-04 20:04 | 32.64829 | -110.85645 | 42965 ft | 440 kts | 279° |
| 2026-05-04 20:04 | 32.66443 | -110.92655 | 42964 ft | 441 kts | 279° |
| 2026-05-04 20:05 | 32.68055 | -110.99672 | 42965 ft | 440 kts | 279° |
| 2026-05-04 20:05 | 32.69661 | -111.06689 | 42980 ft | 441 kts | 279° |
| 2026-05-04 20:06 | 32.71263 | -111.13707 | 42974 ft | 441 kts | 279° |
| 2026-05-04 20:06 | 32.72863 | -111.20735 | 42982 ft | 441 kts | 278° |
| 2026-05-04 20:07 | 32.74458 | -111.27759 | 42979 ft | 440 kts | 278° |
| 2026-05-04 20:07 | 32.76048 | -111.34782 | 42980 ft | 440 kts | 278° |
| 2026-05-04 20:08 | 32.77630 | -111.41786 | 42969 ft | 439 kts | 278° |
| 2026-05-04 20:08 | 32.79207 | -111.48801 | 42966 ft | 440 kts | 278° |
| 2026-05-04 20:09 | 32.80786 | -111.55828 | 42968 ft | 440 kts | 278° |
| 2026-05-04 20:09 | 32.82359 | -111.62864 | 42975 ft | 440 kts | 278° |
| 2026-05-04 20:10 | 32.83931 | -111.69899 | 42982 ft | 440 kts | 278° |
| 2026-05-04 20:10 | 32.85498 | -111.76939 | 42988 ft | 440 kts | 278° |
| 2026-05-04 20:11 | 32.87060 | -111.83978 | 42984 ft | 440 kts | 278° |
| 2026-05-04 20:11 | 32.88540 | -111.91036 | 42967 ft | 436 kts | 274° |
| 2026-05-04 20:12 | 32.89265 | -111.98158 | 42971 ft | 433 kts | 271° |
| 2026-05-04 20:12 | 32.89954 | -112.05282 | 42965 ft | 433 kts | 271° |
| 2026-05-04 20:13 | 32.90612 | -112.12405 | 42958 ft | 433 kts | 271° |
| 2026-05-04 20:13 | 32.91279 | -112.19530 | 42950 ft | 433 kts | 271° |
| 2026-05-04 20:14 | 32.91932 | -112.26608 | 42958 ft | 433 kts | 271° |
| 2026-05-04 20:14 | 32.92587 | -112.33732 | 42957 ft | 433 kts | 271° |
| 2026-05-04 20:15 | 32.93237 | -112.40862 | 42968 ft | 433 kts | 270° |
| 2026-05-04 20:15 | 32.93884 | -112.47985 | 42975 ft | 433 kts | 270° |
| 2026-05-04 20:16 | 32.94527 | -112.55115 | 42990 ft | 433 kts | 270° |
| 2026-05-04 20:16 | 32.95165 | -112.62246 | 42995 ft | 433 kts | 270° |
| 2026-05-04 20:17 | 32.95280 | -112.69352 | 42985 ft | 426 kts | 261° |
| 2026-05-04 20:17 | 32.94425 | -112.76305 | 43000 ft | 424 kts | 257° |
| 2026-05-04 20:18 | 32.93509 | -112.83249 | 43003 ft | 424 kts | 257° |
| 2026-05-04 20:18 | 32.92562 | -112.90182 | 42992 ft | 424 kts | 257° |
| 2026-05-04 20:19 | 32.91625 | -112.97114 | 42987 ft | 424 kts | 257° |
| 2026-05-04 20:19 | 32.90679 | -113.04043 | 42973 ft | 424 kts | 257° |
| 2026-05-04 20:20 | 32.89731 | -113.10974 | 42962 ft | 424 kts | 257° |
| 2026-05-04 20:20 | 32.88778 | -113.17900 | 42952 ft | 424 kts | 257° |
| 2026-05-04 20:21 | 32.87822 | -113.24824 | 42955 ft | 424 kts | 257° |
| 2026-05-04 20:21 | 32.86380 | -113.35213 | 42949 ft | 424 kts | 257° |
| 2026-05-04 20:22 | 32.85420 | -113.42093 | 42938 ft | 425 kts | 257° |
| 2026-05-04 20:22 | 32.84449 | -113.49025 | 42937 ft | 425 kts | 257° |
| 2026-05-04 20:23 | 32.83473 | -113.55964 | 42936 ft | 426 kts | 257° |
| 2026-05-04 20:23 | 32.82492 | -113.62905 | 42936 ft | 426 kts | 257° |
| 2026-05-04 20:24 | 32.81506 | -113.69852 | 42938 ft | 426 kts | 257° |
| 2026-05-04 20:24 | 32.80515 | -113.76811 | 42932 ft | 427 kts | 256° |
| 2026-05-04 20:25 | 32.79519 | -113.83770 | 42935 ft | 427 kts | 256° |
| 2026-05-04 20:25 | 32.78518 | -113.90737 | 42934 ft | 428 kts | 256° |
| 2026-05-04 20:26 | 32.77512 | -113.97711 | 42922 ft | 428 kts | 256° |
| 2026-05-04 20:26 | 32.76502 | -114.04684 | 42934 ft | 429 kts | 256° |
| 2026-05-04 20:27 | 32.75486 | -114.11665 | 42946 ft | 429 kts | 256° |
| 2026-05-04 20:27 | 32.74467 | -114.18639 | 42958 ft | 428 kts | 256° |
| 2026-05-04 20:28 | 32.73449 | -114.25572 | 42956 ft | 429 kts | 256° |
| 2026-05-04 20:28 | 32.72420 | -114.32555 | 42961 ft | 429 kts | 256° |
| 2026-05-04 20:29 | 32.71388 | -114.39527 | 42963 ft | 429 kts | 256° |
| 2026-05-04 20:29 | 32.69985 | -114.46378 | 42953 ft | 425 kts | 246° |
| 2026-05-04 20:30 | 32.67140 | -114.52493 | 42978 ft | 424 kts | 236° |
| 2026-05-04 20:30 | 32.63396 | -114.57898 | 42975 ft | 426 kts | 227° |
| 2026-05-04 20:31 | 32.58823 | -114.62399 | 42978 ft | 430 kts | 218° |
| 2026-05-04 20:31 | 32.53537 | -114.65799 | 42962 ft | 437 kts | 208° |
| 2026-05-04 20:32 | 32.47667 | -114.67927 | 42934 ft | 447 kts | 199° |
| 2026-05-04 20:32 | 32.41396 | -114.68610 | 42919 ft | 460 kts | 188° |
| 2026-05-04 20:33 | 32.34944 | -114.67690 | 42909 ft | 477 kts | 177° |
| 2026-05-04 20:33 | 32.28575 | -114.65036 | 42896 ft | 497 kts | 165° |
| 2026-05-04 20:34 | 32.25524 | -114.63029 | 42900 ft | 508 kts | 159° |
| 2026-05-04 20:34 | 32.22627 | -114.60562 | 42901 ft | 520 kts | 152° |
| 2026-05-04 20:34 | 32.19937 | -114.57640 | 42901 ft | 532 kts | 145° |
| 2026-05-04 20:34 | 32.17509 | -114.54274 | 42899 ft | 545 kts | 137° |
| 2026-05-04 20:35 | 32.15409 | -114.50496 | 42891 ft | 557 kts | 129° |
| 2026-05-04 20:35 | 32.13694 | -114.46342 | 42889 ft | 570 kts | 121° |
| 2026-05-04 20:35 | 32.12420 | -114.41860 | 42882 ft | 581 kts | 113° |
| 2026-05-04 20:35 | 32.11636 | -114.37148 | 42872 ft | 592 kts | 104° |
| 2026-05-04 20:36 | 32.11616 | -114.27318 | 42879 ft | 608 kts | 88° |
| 2026-05-04 20:36 | 32.13703 | -114.17597 | 42886 ft | 616 kts | 71° |
| 2026-05-04 20:37 | 32.17777 | -114.08696 | 42891 ft | 618 kts | 54° |
| 2026-05-04 20:37 | 32.23553 | -114.01254 | 42884 ft | 613 kts | 37° |
| 2026-05-04 20:38 | 32.30543 | -113.95824 | 42881 ft | 601 kts | 20° |
| 2026-05-04 20:38 | 32.38313 | -113.92677 | 42882 ft | 582 kts | 4° |
| 2026-05-04 20:39 | 32.42280 | -113.92033 | 42877 ft | 570 kts | 355° |
| 2026-05-04 20:39 | 32.46205 | -113.92013 | 42874 ft | 559 kts | 347° |
| 2026-05-04 20:39 | 32.50016 | -113.92605 | 42877 ft | 545 kts | 338° |
| 2026-05-04 20:39 | 32.53623 | -113.93779 | 42873 ft | 532 kts | 330° |
| 2026-05-04 20:40 | 32.56969 | -113.95496 | 42871 ft | 518 kts | 322° |
| 2026-05-04 20:40 | 32.59997 | -113.97695 | 42874 ft | 504 kts | 313° |
| 2026-05-04 20:40 | 32.62663 | -114.00309 | 42886 ft | 493 kts | 307° |
| 2026-05-04 20:40 | 32.65231 | -114.03015 | 42897 ft | 493 kts | 307° |
| 2026-05-04 20:41 | 32.69258 | -114.07730 | 42910 ft | 485 kts | 302° |
| 2026-05-04 20:41 | 32.73348 | -114.14009 | 42937 ft | 471 kts | 293° |
| 2026-05-04 20:42 | 32.76294 | -114.20758 | 42935 ft | 457 kts | 283° |
| 2026-05-04 20:42 | 32.78058 | -114.27900 | 42963 ft | 445 kts | 273° |
| 2026-05-04 20:43 | 32.78650 | -114.35133 | 42971 ft | 439 kts | 267° |
| 2026-05-04 20:43 | 32.79790 | -114.42352 | 42960 ft | 452 kts | 278° |
| 2026-05-04 20:44 | 32.80760 | -114.45881 | 42666 ft | 444 kts | 280° |
| 2026-05-04 20:44 | 32.81708 | -114.49303 | 42071 ft | 425 kts | 279° |
| 2026-05-04 20:44 | 32.82600 | -114.52575 | 41514 ft | 408 kts | 278° |
| 2026-05-04 20:44 | 32.83471 | -114.55766 | 40980 ft | 392 kts | 278° |
| 2026-05-04 20:45 | 32.84292 | -114.58744 | 40472 ft | 378 kts | 277° |
| 2026-05-04 20:45 | 32.85094 | -114.61662 | 39981 ft | 365 kts | 277° |
| 2026-05-04 20:45 | 32.85867 | -114.64498 | 39515 ft | 357 kts | 276° |
| 2026-05-04 20:45 | 32.86627 | -114.67294 | 39053 ft | 353 kts | 276° |
| 2026-05-04 20:46 | 32.87263 | -114.70079 | 38576 ft | 348 kts | 271° |
| 2026-05-04 20:46 | 32.87662 | -114.72913 | 38095 ft | 347 kts | 267° |
| 2026-05-04 20:46 | 32.87833 | -114.75779 | 37638 ft | 349 kts | 263° |
| 2026-05-04 20:46 | 32.87794 | -114.78674 | 37186 ft | 352 kts | 261° |
| 2026-05-04 20:47 | 32.87725 | -114.81595 | 36709 ft | 355 kts | 261° |
| 2026-05-04 20:47 | 32.87673 | -114.84541 | 36236 ft | 357 kts | 261° |
| 2026-05-04 20:47 | 32.87611 | -114.87505 | 35763 ft | 360 kts | 261° |
| 2026-05-04 20:47 | 32.87539 | -114.90493 | 35288 ft | 363 kts | 260° |
| 2026-05-04 20:48 | 32.87469 | -114.93501 | 34811 ft | 366 kts | 260° |
| 2026-05-04 20:48 | 32.87401 | -114.96538 | 34329 ft | 368 kts | 260° |
| 2026-05-04 20:48 | 32.87332 | -114.99596 | 33823 ft | 371 kts | 260° |
| 2026-05-04 20:48 | 32.87259 | -115.02676 | 33322 ft | 374 kts | 260° |
| 2026-05-04 20:49 | 32.87186 | -115.05786 | 32827 ft | 378 kts | 260° |
| 2026-05-04 20:49 | 32.87110 | -115.08924 | 32329 ft | 382 kts | 260° |
| 2026-05-04 20:49 | 32.87034 | -115.12102 | 31824 ft | 386 kts | 261° |
| 2026-05-04 20:49 | 32.86957 | -115.15307 | 31314 ft | 390 kts | 261° |
| 2026-05-04 20:50 | 32.86877 | -115.18545 | 30799 ft | 394 kts | 261° |
| 2026-05-04 20:50 | 32.86795 | -115.21821 | 30277 ft | 398 kts | 261° |
| 2026-05-04 20:50 | 32.86715 | -115.25102 | 29712 ft | 395 kts | 261° |
| 2026-05-04 20:50 | 32.86637 | -115.28346 | 29195 ft | 391 kts | 261° |
| 2026-05-04 20:51 | 32.86553 | -115.31564 | 28667 ft | 388 kts | 261° |
| 2026-05-04 20:51 | 32.86400 | -115.34742 | 28140 ft | 381 kts | 257° |
| 2026-05-04 20:51 | 32.85959 | -115.37814 | 27652 ft | 376 kts | 254° |
| 2026-05-04 20:51 | 32.85525 | -115.40882 | 27152 ft | 374 kts | 255° |
| 2026-05-04 20:52 | 32.85117 | -115.43927 | 26664 ft | 372 kts | 255° |
| 2026-05-04 20:52 | 32.84699 | -115.46943 | 26187 ft | 369 kts | 255° |
| 2026-05-04 20:52 | 32.84246 | -115.49935 | 25719 ft | 365 kts | 254° |
| 2026-05-04 20:52 | 32.83753 | -115.52883 | 25261 ft | 363 kts | 254° |
| 2026-05-04 20:53 | 32.83280 | -115.55823 | 24808 ft | 361 kts | 255° |
| 2026-05-04 20:53 | 32.82814 | -115.58716 | 24374 ft | 359 kts | 255° |
| 2026-05-04 20:53 | 32.82339 | -115.61617 | 23946 ft | 357 kts | 255° |
| 2026-05-04 20:53 | 32.81863 | -115.64502 | 23544 ft | 355 kts | 255° |
| 2026-05-04 20:54 | 32.81392 | -115.67371 | 23038 ft | 353 kts | 255° |
| 2026-05-04 20:54 | 32.80924 | -115.70227 | 22561 ft | 351 kts | 255° |
| 2026-05-04 20:54 | 32.80458 | -115.73064 | 22080 ft | 349 kts | 255° |
| 2026-05-04 20:54 | 32.79990 | -115.75896 | 21609 ft | 349 kts | 255° |
| 2026-05-04 20:55 | 32.79524 | -115.78717 | 21150 ft | 348 kts | 256° |
| 2026-05-04 20:55 | 32.79059 | -115.81534 | 20703 ft | 347 kts | 256° |
| 2026-05-04 20:55 | 32.78597 | -115.84345 | 20266 ft | 346 kts | 256° |
| 2026-05-04 20:55 | 32.78329 | -115.87196 | 19815 ft | 348 kts | 262° |
| 2026-05-04 20:56 | 32.78137 | -115.90058 | 19400 ft | 347 kts | 262° |
| 2026-05-04 20:56 | 32.77923 | -115.92913 | 19004 ft | 346 kts | 261° |
| 2026-05-04 20:56 | 32.77701 | -115.95760 | 18602 ft | 346 kts | 262° |
| 2026-05-04 20:56 | 32.77486 | -115.98608 | 18191 ft | 346 kts | 262° |
| 2026-05-04 20:57 | 32.77277 | -116.01450 | 17765 ft | 345 kts | 262° |
| 2026-05-04 20:57 | 32.77064 | -116.04280 | 17323 ft | 344 kts | 262° |
| 2026-05-04 20:57 | 32.76850 | -116.07100 | 16893 ft | 342 kts | 262° |
| 2026-05-04 20:57 | 32.76635 | -116.09914 | 16474 ft | 341 kts | 262° |
| 2026-05-04 20:58 | 32.76423 | -116.12721 | 16066 ft | 341 kts | 262° |
| 2026-05-04 20:58 | 32.76210 | -116.15513 | 15674 ft | 338 kts | 262° |
| 2026-05-04 20:58 | 32.75999 | -116.18265 | 15283 ft | 337 kts | 262° |
| 2026-05-04 20:58 | 32.75785 | -116.21055 | 14931 ft | 337 kts | 262° |
| 2026-05-04 20:59 | 32.75585 | -116.23691 | 14575 ft | 304 kts | 262° |
| 2026-05-04 20:59 | 32.75390 | -116.26217 | 14145 ft | 305 kts | 262° |
| 2026-05-04 20:59 | 32.75195 | -116.28705 | 13731 ft | 301 kts | 262° |
| 2026-05-04 20:59 | 32.75005 | -116.31163 | 13310 ft | 296 kts | 262° |
| 2026-05-04 21:00 | 32.74818 | -116.33589 | 12889 ft | 293 kts | 262° |
| 2026-05-04 21:00 | 32.74631 | -116.35993 | 12487 ft | 291 kts | 262° |
| 2026-05-04 21:00 | 32.74446 | -116.38372 | 12087 ft | 288 kts | 262° |
| 2026-05-04 21:00 | 32.74267 | -116.40664 | 11723 ft | 286 kts | 262° |
| 2026-05-04 21:01 | 32.74084 | -116.43007 | 11354 ft | 285 kts | 262° |
| 2026-05-04 21:01 | 32.73900 | -116.45352 | 10983 ft | 282 kts | 262° |
| 2026-05-04 21:01 | 32.73726 | -116.47593 | 10670 ft | 265 kts | 262° |
| 2026-05-04 21:01 | 32.73558 | -116.49734 | 10290 ft | 258 kts | 262° |
| 2026-05-04 21:02 | 32.73338 | -116.51839 | 9903 ft | 256 kts | 260° |
| 2026-05-04 21:02 | 32.73143 | -116.53944 | 9522 ft | 257 kts | 262° |
| 2026-05-04 21:02 | 32.72959 | -116.56034 | 9226 ft | 251 kts | 262° |
| 2026-05-04 21:02 | 32.72762 | -116.58076 | 9120 ft | 250 kts | 262° |
| 2026-05-04 21:03 | 32.72554 | -116.60162 | 9029 ft | 257 kts | 262° |
| 2026-05-04 21:03 | 32.72349 | -116.62276 | 8868 ft | 260 kts | 262° |
| 2026-05-04 21:03 | 32.72143 | -116.64420 | 8567 ft | 262 kts | 263° |
| 2026-05-04 21:03 | 32.71969 | -116.66442 | 8256 ft | 262 kts | 265° |
| 2026-05-04 21:04 | 32.71821 | -116.68582 | 7946 ft | 258 kts | 264° |
| 2026-05-04 21:04 | 32.71629 | -116.70697 | 7634 ft | 258 kts | 264° |
| 2026-05-04 21:04 | 32.71451 | -116.72824 | 7329 ft | 258 kts | 265° |
| 2026-05-04 21:04 | 32.71290 | -116.74948 | 7011 ft | 258 kts | 266° |
| 2026-05-04 21:05 | 32.71129 | -116.77041 | 6692 ft | 258 kts | 266° |
| 2026-05-04 21:05 | 32.70961 | -116.79154 | 6361 ft | 257 kts | 266° |
| 2026-05-04 21:05 | 32.70789 | -116.81259 | 6046 ft | 255 kts | 266° |
| 2026-05-04 21:05 | 32.70321 | -116.83247 | 5781 ft | 242 kts | 251° |
| 2026-05-04 21:06 | 32.69723 | -116.85061 | 5476 ft | 231 kts | 252° |
| 2026-05-04 21:06 | 32.69178 | -116.86815 | 5166 ft | 221 kts | 253° |
| 2026-05-04 21:06 | 32.68682 | -116.88504 | 4864 ft | 212 kts | 255° |
| 2026-05-04 21:06 | 32.68215 | -116.90156 | 4568 ft | 210 kts | 252° |
| 2026-05-04 21:07 | 32.67708 | -116.91774 | 4269 ft | 209 kts | 251° |
| 2026-05-04 21:07 | 32.67327 | -116.93419 | 3894 ft | 206 kts | 268° |
| 2026-05-04 21:07 | 32.67593 | -116.95046 | 3903 ft | 195 kts | 285° |
| 2026-05-04 21:07 | 32.67967 | -116.96605 | 3912 ft | 201 kts | 285° |
| 2026-05-04 21:08 | 32.68352 | -116.98200 | 3901 ft | 195 kts | 285° |
| 2026-05-04 21:08 | 32.68746 | -116.99829 | 3829 ft | 211 kts | 285° |
| 2026-05-04 21:08 | 32.69155 | -117.01511 | 3665 ft | 211 kts | 285° |
| 2026-05-04 21:08 | 32.69546 | -117.03107 | 3446 ft | 194 kts | 285° |
| 2026-05-04 21:09 | 32.69913 | -117.04687 | 3226 ft | 204 kts | 284° |
| 2026-05-04 21:09 | 32.70262 | -117.06232 | 2954 ft | 178 kts | 284° |
| 2026-05-04 21:09 | 32.70573 | -117.07573 | 2578 ft | 163 kts | 285° |
| 2026-05-04 21:09 | 32.70891 | -117.08843 | 2230 ft | 160 kts | 287° |
| 2026-05-04 21:10 | 32.71215 | -117.10073 | 1800 ft | 145 kts | 285° |
| 2026-05-04 21:10 | 32.71452 | -117.11146 | 1486 ft | 124 kts | 285° |
| 2026-05-04 21:10 | 32.71684 | -117.12078 | 1219 ft | 111 kts | 286° |
| 2026-05-04 21:10 | 32.71893 | -117.12935 | 1014 ft | 105 kts | 285° |
| 2026-05-04 21:11 | 32.72103 | -117.13745 | 946 ft | 103 kts | 287° |
| 2026-05-04 21:11 | 32.72310 | -117.14589 | 800 ft | 111 kts | 284° |
| 2026-05-04 21:11 | 32.72520 | -117.15497 | 633 ft | 115 kts | 283° |
| 2026-05-04 21:11 | 32.72737 | -117.16406 | 416 ft | 113 kts | 285° |
| 2026-05-04 21:12 | 32.72959 | -117.17300 | 177 ft | 113 kts | 286° |
| 2026-05-04 21:12 | 32.73168 | -117.18160 | 23 ft | 100 kts | 287° |
| 2026-05-04 21:12 | 32.73335 | -117.18838 | 18 ft | 70 kts | 286° |
| 2026-05-04 21:12 | 32.73429 | -117.19086 | 18 ft | 16 kts | 348° |
| 2026-05-04 21:13 | 32.73471 | -117.19075 | 16 ft | 3 kts | 36° |
| 2026-05-04 21:13 | 32.73485 | -117.19049 | 15 ft | 5 kts | 71° |
| 2026-05-04 21:13 | 32.73482 | -117.19015 | 15 ft | 4 kts | 103° |
| 2026-05-04 21:13 | 32.73471 | -117.18968 | 15 ft | 10 kts | 106° |
| 2026-05-04 21:14 | 32.73452 | -117.18888 | 15 ft | 12 kts | 106° |
| 2026-05-04 21:14 | 32.73417 | -117.18750 | 15 ft | 18 kts | 105° |
| 2026-05-04 21:14 | 32.73383 | -117.18608 | 18 ft | 17 kts | 106° |
| 2026-05-04 21:14 | 32.73352 | -117.18480 | 20 ft | 16 kts | 106° |
| 2026-05-04 21:15 | 32.73321 | -117.18352 | 18 ft | 17 kts | 106° |
| 2026-05-04 21:15 | 32.73288 | -117.18216 | 19 ft | 17 kts | 106° |
| 2026-05-04 21:15 | 32.73258 | -117.18092 | 19 ft | 12 kts | 106° |
| 2026-05-04 21:15 | 32.73245 | -117.17996 | 16 ft | 10 kts | 66° |
| 2026-05-04 21:16 | 32.73286 | -117.17970 | 18 ft | 5 kts | 13° |
| 2026-05-04 21:16 | 32.73332 | -117.17956 | 22 ft | 6 kts | 15° |
| 2026-05-04 21:16 | 32.73386 | -117.17937 | 18 ft | 10 kts | 21° |
| 2026-05-04 21:16 | 32.73420 | -117.17898 | 17 ft | 6 kts | 94° |
| 2026-05-04 21:17 | 32.73402 | -117.17893 | 19 ft | 0 kts | 197° |